Time;durP1;ratioP1;P1;durP2;ratioP2;P2;SDS_P1;SDS_P2;PMS_P1;PMS_P2;Temp;Humidity;BMP_temperature;BMP_pressure;BME280_temperature;BME280_humidity;BME280_pressure;Samples;Min_cycle;Max_cycle;Signal;HPM_P1;HPM_P2
2023/09/26 00:02:25;;;;;;;8.93;6.07;;;18.70;7.30;;;;;;5134034;27;20283;-82
2023/09/26 00:04:51;;;;;;;11.03;6.57;;;18.60;10.50;;;;;;5133049;27;20162;-80
2023/09/26 00:07:17;;;;;;;9.87;6.37;;;18.60;10.50;;;;;;5135045;27;20167;-80
2023/09/26 00:09:44;;;;;;;9.23;5.93;;;18.50;9.90;;;;;;5136336;27;20272;-81
2023/09/26 00:12:10;;;;;;;7.40;5.70;;;18.50;10.60;;;;;;5134604;27;20256;-81
2023/09/26 00:14:36;;;;;;;8.80;5.63;;;18.40;12.90;;;;;;5138697;27;20194;-80
2023/09/26 00:17:03;;;;;;;10.40;6.30;;;18.40;17.30;;;;;;5135016;27;20233;-82
2023/09/26 00:19:29;;;;;;;10.40;6.00;;;18.30;20.20;;;;;;5135832;27;20244;-82
2023/09/26 00:21:55;;;;;;;9.50;5.93;;;18.20;24.20;;;;;;5135564;27;20199;-81
2023/09/26 00:24:21;;;;;;;9.07;5.63;;;18.30;24.40;;;;;;5135191;27;20209;-81
2023/09/26 00:26:46;;;;;;;11.90;6.63;;;18.30;23.50;;;;;;5139696;27;20217;-82
2023/09/26 00:29:12;;;;;;;10.33;6.30;;;18.30;22.90;;;;;;5147928;27;20173;-80
2023/09/26 00:31:38;;;;;;;10.70;6.27;;;18.40;21.90;;;;;;5137517;27;20158;-80
2023/09/26 00:34:04;;;;;;;11.70;6.03;;;18.30;22.30;;;;;;5134925;27;20569;-81
2023/09/26 00:36:31;;;;;;;7.90;5.50;;;18.30;20.70;;;;;;5135449;27;20155;-80
2023/09/26 00:38:57;;;;;;;10.70;5.60;;;18.30;20.00;;;;;;5135652;27;20150;-80
2023/09/26 00:41:22;;;;;;;9.63;6.17;;;18.30;18.90;;;;;;5137345;27;20214;-80
2023/09/26 00:43:48;;;;;;;9.40;6.33;;;18.30;17.20;;;;;;5154005;27;20190;-80
2023/09/26 00:46:14;;;;;;;11.07;5.77;;;18.20;17.70;;;;;;5147537;28;20243;-81
2023/09/26 00:48:41;;;;;;;9.90;6.23;;;18.20;19.00;;;;;;5117851;28;20173;-79
2023/09/26 00:51:07;;;;;;;9.13;6.53;;;18.20;17.30;;;;;;5114064;28;20184;-81
2023/09/26 00:53:37;;;;;;;9.70;5.77;;;18.20;18.60;;;;;;5116679;28;20667;-79
2023/09/26 00:56:04;;;;;;;10.93;5.90;;;18.10;19.70;;;;;;5114665;28;20170;-80
2023/09/26 00:58:33;;;;;;;9.97;5.53;;;18.10;20.90;;;;;;5120294;28;20625;-80
2023/09/26 01:01:00;;;;;;;10.27;5.67;;;18.10;21.20;;;;;;5125327;28;20222;-80
2023/09/26 01:03:26;;;;;;;9.13;6.20;;;18.10;20.90;;;;;;5127214;28;20193;-81
2023/09/26 01:05:52;;;;;;;10.07;5.97;;;18.20;20.00;;;;;;5123549;28;20171;-81
2023/09/26 01:08:21;;;;;;;8.97;5.70;;;18.20;17.60;;;;;;5112776;28;20539;-81
2023/09/26 01:10:47;;;;;;;8.00;5.83;;;18.20;16.50;;;;;;5112322;28;20198;-81
2023/09/26 01:13:12;;;;;;;8.83;5.60;;;18.20;16.60;;;;;;5112616;28;20256;-81
2023/09/26 01:15:40;;;;;;;9.23;5.07;;;18.20;14.80;;;;;;5113801;28;20168;-82
2023/09/26 01:18:11;;;;;;;9.07;5.90;;;18.10;16.30;;;;;;5113430;28;20284;-81
2023/09/26 01:20:45;;;;;;;8.73;5.67;;;18.10;17.70;;;;;;5114526;28;20159;-80
2023/09/26 01:23:12;;;;;;;7.93;5.43;;;18.10;19.10;;;;;;5126184;28;20217;-79
2023/09/26 01:25:42;;;;;;;7.03;5.50;;;18.10;19.10;;;;;;5139250;28;20169;-79
2023/09/26 01:28:12;;;;;;;9.13;5.60;;;18.10;19.90;;;;;;5127810;28;20547;-81
2023/09/26 01:30:46;;;;;;;10.70;5.27;;;18.10;19.70;;;;;;5119405;28;20152;-81
2023/09/26 01:33:16;;;;;;;12.30;6.17;;;18.10;20.60;;;;;;5118397;28;20629;-81
2023/09/26 01:35:43;;;;;;;8.50;5.80;;;18.10;16.90;;;;;;5116447;28;20169;-80
2023/09/26 01:38:09;;;;;;;11.03;5.53;;;18.10;14.80;;;;;;5117168;28;20299;-81
2023/09/26 01:40:35;;;;;;;10.20;5.60;;;18.10;15.30;;;;;;5117435;28;20190;-80
2023/09/26 01:43:01;;;;;;;7.33;5.60;;;18.00;18.80;;;;;;5116097;28;20682;-81
2023/09/26 01:45:28;;;;;;;9.20;5.73;;;17.80;22.40;;;;;;5116684;28;20183;-82
2023/09/26 01:47:54;;;;;;;10.57;5.40;;;17.70;28.20;;;;;;5117757;28;20227;-80
2023/09/26 01:50:20;;;;;;;11.57;5.77;;;17.70;29.80;;;;;;5117905;27;20173;-80
2023/09/26 01:52:46;;;;;;;9.37;5.33;;;17.60;29.90;;;;;;5117084;28;20194;-81
2023/09/26 01:55:19;;;;;;;9.87;5.77;;;17.70;30.60;;;;;;5116414;28;20174;-80
2023/09/26 01:57:46;;;;;;;9.47;5.20;;;17.70;29.10;;;;;;5117652;28;20197;-80
2023/09/26 02:00:14;;;;;;;9.73;5.67;;;17.80;28.10;;;;;;5116625;28;20182;-79
2023/09/26 02:02:44;;;;;;;7.50;4.77;;;17.80;27.60;;;;;;5116065;28;20221;-80
2023/09/26 02:05:12;;;;;;;8.13;5.17;;;17.80;27.00;;;;;;5117650;28;20162;-81
2023/09/26 02:07:39;;;;;;;7.70;4.90;;;17.80;26.90;;;;;;5116359;28;20208;-81
2023/09/26 02:10:06;;;;;;;9.37;5.23;;;17.90;26.10;;;;;;5116765;28;20253;-81
2023/09/26 02:12:38;;;;;;;6.57;4.93;;;17.70;26.90;;;;;;5117680;27;20615;-79
2023/09/26 02:15:06;;;;;;;7.97;5.13;;;17.50;29.90;;;;;;5115372;28;20178;-82
2023/09/26 02:17:35;;;;;;;7.37;4.67;;;17.60;29.70;;;;;;5115077;28;20177;-81
2023/09/26 02:20:15;;;;;;;8.53;5.00;;;17.60;29.50;;;;;;5116562;28;20163;-81
2023/09/26 02:22:42;;;;;;;6.73;4.47;;;17.60;29.20;;;;;;5116321;28;20246;-81
2023/09/26 02:25:12;;;;;;;8.67;4.63;;;17.60;27.70;;;;;;5115886;28;20186;-81
2023/09/26 02:27:38;;;;;;;8.43;5.50;;;17.60;26.90;;;;;;5115213;28;20174;-80
2023/09/26 02:30:06;;;;;;;10.57;5.37;;;17.60;27.00;;;;;;5115905;28;20202;-80
2023/09/26 02:32:36;;;;;;;7.17;4.53;;;17.60;25.10;;;;;;5116117;28;20170;-79
2023/09/26 02:35:11;;;;;;;7.20;5.00;;;17.70;22.50;;;;;;5115555;28;20173;-82
2023/09/26 02:37:38;;;;;;;8.87;5.00;;;17.70;22.80;;;;;;5115175;28;20289;-81
2023/09/26 02:40:05;;;;;;;8.03;5.20;;;17.70;23.70;;;;;;5113315;28;20179;-81
2023/09/26 02:42:34;;;;;;;6.77;4.90;;;17.70;23.70;;;;;;5115151;28;20576;-81
2023/09/26 02:45:00;;;;;;;9.57;4.87;;;17.70;24.20;;;;;;5114960;28;20626;-81
2023/09/26 02:47:26;;;;;;;8.43;5.10;;;17.70;23.20;;;;;;5115391;28;20200;-81
2023/09/26 02:49:52;;;;;;;6.77;4.97;;;17.70;18.20;;;;;;5116160;28;20174;-80
2023/09/26 02:52:18;;;;;;;8.97;5.07;;;17.80;15.60;;;;;;5115328;28;20191;-81
2023/09/26 02:54:44;;;;;;;9.10;4.80;;;17.80;16.30;;;;;;5115540;28;20259;-82
2023/09/26 02:57:10;;;;;;;9.60;5.43;;;17.70;18.80;;;;;;5114253;28;20603;-81
2023/09/26 02:59:36;;;;;;;10.17;5.07;;;17.60;22.30;;;;;;5115859;28;20243;-82
2023/09/26 03:02:02;;;;;;;9.83;5.87;;;17.50;24.30;;;;;;5114105;28;20193;-81
2023/09/26 03:04:28;;;;;;;10.83;5.53;;;17.50;24.70;;;;;;5114950;28;20521;-81
2023/09/26 03:06:54;;;;;;;9.47;5.30;;;17.50;21.50;;;;;;5113981;28;20181;-81
2023/09/26 03:09:20;;;;;;;8.77;4.70;;;17.40;18.30;;;;;;5116346;28;20174;-81
2023/09/26 03:11:46;;;;;;;9.10;4.90;;;17.30;18.10;;;;;;5115667;28;20167;-81
2023/09/26 03:14:12;;;;;;;8.40;5.20;;;17.30;20.00;;;;;;5114022;28;20178;-80
2023/09/26 03:16:38;;;;;;;11.27;5.37;;;17.10;25.70;;;;;;5115279;28;20166;-80
2023/09/26 03:19:06;;;;;;;9.37;4.97;;;17.10;29.30;;;;;;5115012;28;20177;-79
2023/09/26 03:21:31;;;;;;;7.73;5.00;;;17.10;32.30;;;;;;5114273;28;20171;-81
2023/09/26 03:23:57;;;;;;;8.27;5.23;;;17.10;35.20;;;;;;5114110;28;20246;-80
2023/09/26 03:26:23;;;;;;;9.27;4.77;;;17.10;35.60;;;;;;5114628;28;20170;-81
2023/09/26 03:28:49;;;;;;;8.60;5.20;;;17.20;33.60;;;;;;5114676;28;20171;-80
2023/09/26 03:31:14;;;;;;;11.10;4.60;;;17.30;30.60;;;;;;5113063;28;20197;-78
2023/09/26 03:33:40;;;;;;;7.50;4.63;;;17.40;26.20;;;;;;5115876;28;20173;-80
2023/09/26 03:36:06;;;;;;;8.40;4.97;;;17.40;22.60;;;;;;5114721;28;20180;-80
2023/09/26 03:38:32;;;;;;;10.13;5.10;;;17.30;21.20;;;;;;5114352;28;20175;-81
2023/09/26 03:41:04;;;;;;;10.10;5.43;;;17.40;18.40;;;;;;5115166;28;20174;-80
2023/09/26 03:43:30;;;;;;;9.47;5.50;;;17.40;18.40;;;;;;5113558;28;20242;-81
2023/09/26 03:46:07;;;;;;;8.13;5.73;;;17.30;19.40;;;;;;5114687;28;20220;-83
2023/09/26 03:48:33;;;;;;;7.97;4.80;;;17.30;21.60;;;;;;5112864;28;20177;-81
2023/09/26 03:51:10;;;;;;;10.20;5.23;;;17.20;23.40;;;;;;5114162;28;20173;-83
2023/09/26 03:53:36;;;;;;;8.80;4.77;;;17.20;25.60;;;;;;5112728;28;20202;-82
2023/09/26 03:56:02;;;;;;;8.97;5.13;;;17.30;26.00;;;;;;5115122;28;20176;-81
2023/09/26 03:58:28;;;;;;;8.90;5.10;;;17.30;25.80;;;;;;5114376;28;20169;-81
2023/09/26 04:00:53;;;;;;;9.03;5.10;;;17.30;24.90;;;;;;5113185;28;20207;-80
2023/09/26 04:03:20;;;;;;;6.57;4.67;;;17.40;24.10;;;;;;5114390;28;20228;-81
2023/09/26 04:05:48;;;;;;;7.90;5.37;;;17.50;22.90;;;;;;5115350;28;20630;-82
2023/09/26 04:08:17;;;;;;;9.20;5.40;;;17.40;22.70;;;;;;5115390;28;20152;-81
2023/09/26 04:10:43;;;;;;;11.30;5.73;;;17.40;21.20;;;;;;5114649;28;20159;-81
2023/09/26 04:13:08;;;;;;;8.53;5.00;;;17.50;19.60;;;;;;5114897;28;20271;-83
2023/09/26 04:15:38;;;;;;;10.87;5.40;;;17.60;18.60;;;;;;5115591;28;20172;-80
2023/09/26 04:18:05;;;;;;;9.67;5.27;;;17.60;17.80;;;;;;5112235;28;20226;-80
2023/09/26 04:20:30;;;;;;;10.13;5.23;;;17.60;16.80;;;;;;5115218;28;20299;-80
2023/09/26 04:22:56;;;;;;;10.37;5.47;;;17.70;16.10;;;;;;5135985;28;20195;-78
2023/09/26 04:25:22;;;;;;;8.37;5.70;;;17.70;14.40;;;;;;5126376;28;20187;-79
2023/09/26 04:27:49;;;;;;;12.00;5.97;;;17.70;12.80;;;;;;5113746;28;20253;-81
2023/09/26 04:30:20;;;;;;;8.80;5.97;;;17.70;12.50;;;;;;5116176;28;20181;-80
2023/09/26 04:32:49;;;;;;;10.47;6.30;;;17.70;10.70;;;;;;5119767;28;20176;-79
2023/09/26 04:35:15;;;;;;;11.10;5.60;;;17.80;9.00;;;;;;5125071;28;20220;-81
2023/09/26 04:37:41;;;;;;;10.23;5.87;;;17.70;8.50;;;;;;5128734;28;20180;-83
2023/09/26 04:40:10;;;;;;;10.87;5.57;;;17.70;8.70;;;;;;5130810;28;20176;-81
2023/09/26 04:42:41;;;;;;;13.63;6.00;;;17.70;10.60;;;;;;5130053;28;20204;-81
2023/09/26 04:45:09;;;;;;;9.87;6.23;;;17.70;10.40;;;;;;5133123;28;20222;-81
2023/09/26 04:47:36;;;;;;;9.90;5.67;;;17.70;9.20;;;;;;5132410;28;20166;-78
2023/09/26 04:50:03;;;;;;;10.37;6.00;;;17.70;9.40;;;;;;5124694;28;20210;-81
2023/09/26 04:52:30;;;;;;;15.07;6.23;;;17.70;8.60;;;;;;5124485;28;20313;-80
2023/09/26 04:54:59;;;;;;;10.97;5.80;;;17.70;8.10;;;;;;5134028;28;20225;-80
2023/09/26 04:57:26;;;;;;;9.90;5.90;;;17.80;7.10;;;;;;5131333;28;20181;-79
2023/09/26 04:59:52;;;;;;;11.37;6.40;;;17.80;6.00;;;;;;5124387;28;20680;-82
2023/09/26 05:02:18;;;;;;;11.47;6.27;;;17.90;4.00;;;;;;5117327;28;20208;-81
2023/09/26 05:04:48;;;;;;;11.80;6.40;;;17.90;2.70;;;;;;5119360;28;20193;-81
2023/09/26 05:07:19;;;;;;;11.00;6.27;;;17.90;2.30;;;;;;5118747;28;20189;-81
2023/09/26 05:09:45;;;;;;;11.83;6.33;;;17.80;4.00;;;;;;5116493;28;20162;-82
2023/09/26 05:12:13;;;;;;;15.63;6.70;;;17.80;5.30;;;;;;5118277;28;20189;-82
2023/09/26 05:14:39;;;;;;;12.97;6.17;;;17.70;7.60;;;;;;5117244;28;20166;-80
2023/09/26 05:17:05;;;;;;;10.20;5.93;;;17.70;9.70;;;;;;5124661;28;20232;-81
2023/09/26 05:19:31;;;;;;;9.97;6.40;;;17.60;12.20;;;;;;5124205;28;20205;-81
2023/09/26 05:21:58;;;;;;;11.47;6.23;;;17.60;12.50;;;;;;5125558;28;20178;-82
2023/09/26 05:24:23;;;;;;;9.53;5.83;;;17.60;12.00;;;;;;5124453;28;20216;-80
2023/09/26 05:26:50;;;;;;;11.40;6.07;;;17.60;10.30;;;;;;5123703;28;20346;-82
2023/09/26 05:29:16;;;;;;;10.77;6.23;;;17.60;10.00;;;;;;5123195;28;20274;-83
2023/09/26 05:31:41;;;;;;;12.03;6.63;;;17.70;9.10;;;;;;5119790;28;20190;-81
2023/09/26 05:34:07;;;;;;;18.37;6.60;;;17.60;9.00;;;;;;5118896;28;20171;-82
2023/09/26 05:36:33;;;;;;;12.93;6.30;;;17.50;9.30;;;;;;5119884;28;20169;-81
2023/09/26 05:38:59;;;;;;;12.10;6.27;;;17.40;12.50;;;;;;5130617;27;20168;-84
2023/09/26 05:41:24;;;;;;;11.93;6.63;;;17.40;13.20;;;;;;5136155;27;20194;-81
2023/09/26 05:43:50;;;;;;;12.43;6.17;;;17.50;11.20;;;;;;5136170;27;20260;-82
2023/09/26 05:46:16;;;;;;;12.93;6.07;;;17.40;12.40;;;;;;5140544;27;20175;-79
2023/09/26 05:48:45;;;;;;;14.60;7.03;;;17.50;12.50;;;;;;5142252;27;20166;-81
2023/09/26 05:51:11;;;;;;;11.97;6.33;;;17.50;12.40;;;;;;5143781;27;20672;-83
2023/09/26 05:53:36;;;;;;;12.37;6.80;;;17.50;12.10;;;;;;5144137;27;20197;-83
2023/09/26 05:56:03;;;;;;;11.53;6.67;;;17.60;11.70;;;;;;5137199;27;20175;-82
2023/09/26 05:58:29;;;;;;;13.53;6.60;;;17.60;10.70;;;;;;5137610;27;20172;-83
2023/09/26 06:00:56;;;;;;;12.03;6.07;;;17.60;9.60;;;;;;5140012;27;20187;-85
2023/09/26 06:03:22;;;;;;;13.57;6.70;;;17.60;10.70;;;;;;5137070;27;20616;-82
2023/09/26 06:05:49;;;;;;;18.63;7.13;;;17.70;10.40;;;;;;5138944;27;20377;-81
2023/09/26 06:08:15;;;;;;;15.30;7.10;;;17.60;8.40;;;;;;5136520;27;20200;-82
2023/09/26 06:10:41;;;;;;;16.17;6.93;;;17.60;7.80;;;;;;5136382;27;20174;-81
2023/09/26 06:13:07;;;;;;;12.77;7.27;;;17.60;4.50;;;;;;5137011;27;20175;-81
2023/09/26 06:15:32;;;;;;;20.27;6.77;;;17.50;1.90;;;;;;5136933;27;20166;-81
2023/09/26 06:18:02;;;;;;;13.53;6.40;;;17.50;1.00;;;;;;5137443;27;20175;-82
2023/09/26 06:20:30;;;;;;;12.80;6.53;;;17.50;1.00;;;;;;5137573;27;20263;-82
2023/09/26 06:22:56;;;;;;;10.47;6.47;;;17.50;1.80;;;;;;5136542;27;20218;-82
2023/09/26 06:25:22;;;;;;;15.13;6.17;;;17.50;2.50;;;;;;5138096;27;20264;-83
2023/09/26 06:27:49;;;;;;;13.10;6.60;;;17.50;2.90;;;;;;5136274;27;20265;-81
2023/09/26 06:30:16;;;;;;;12.07;6.03;;;17.60;1.00;;;;;;5136642;27;20255;-81
2023/09/26 06:32:42;;;;;;;10.57;6.00;;;17.60;1.00;;;;;;5138767;27;20588;-80
2023/09/26 06:35:09;;;;;;;11.53;5.73;;;17.70;1.00;;;;;;5138576;27;20177;-82
2023/09/26 06:37:35;;;;;;;10.70;5.80;;;17.70;1.00;;;;;;5136861;27;20201;-82
2023/09/26 06:40:04;;;;;;;13.27;6.53;;;17.70;1.00;;;;;;5139476;27;20249;-81
2023/09/26 06:42:33;;;;;;;10.23;5.80;;;17.60;1.00;;;;;;5137513;27;20214;-81
2023/09/26 06:44:59;;;;;;;15.93;6.43;;;17.60;1.00;;;;;;5138698;27;20254;-81
2023/09/26 06:47:26;;;;;;;10.03;5.63;;;17.60;1.00;;;;;;5143120;27;20208;-81
2023/09/26 06:49:53;;;;;;;15.27;6.57;;;17.60;1.00;;;;;;5144726;27;20184;-82
2023/09/26 06:52:20;;;;;;;11.53;6.53;;;17.70;1.00;;;;;;5143385;27;20191;-81
2023/09/26 06:54:47;;;;;;;16.83;6.67;;;17.80;1.00;;;;;;5143614;27;20180;-83
2023/09/26 06:57:17;;;;;;;13.40;5.57;;;17.90;1.00;;;;;;5137695;27;20166;-85
2023/09/26 06:59:48;;;;;;;11.00;4.80;;;18.00;1.00;;;;;;5139065;27;20168;-84
2023/09/26 07:02:14;;;;;;;13.83;6.17;;;18.10;1.00;;;;;;5138292;27;20655;-82
2023/09/26 07:04:43;;;;;;;14.07;5.57;;;18.10;1.00;;;;;;5137068;27;20272;-81
2023/09/26 07:07:14;;;;;;;9.10;5.43;;;18.20;1.00;;;;;;5136150;27;20225;-82
2023/09/26 07:09:39;;;;;;;10.87;5.50;;;18.30;1.00;;;;;;5136713;27;20164;-82
2023/09/26 07:12:06;;;;;;;9.67;5.17;;;18.40;1.00;;;;;;5135950;27;20241;-82
2023/09/26 07:14:35;;;;;;;12.23;5.60;;;18.50;1.00;;;;;;5135965;27;20185;-83
2023/09/26 07:17:02;;;;;;;12.23;5.20;;;18.60;1.00;;;;;;5136026;27;20162;-84
2023/09/26 07:19:34;;;;;;;7.27;4.60;;;18.70;1.00;;;;;;5135603;27;20541;-83
2023/09/26 07:22:00;;;;;;;12.43;4.83;;;18.80;1.00;;;;;;5135860;27;20622;-81
2023/09/26 07:24:26;;;;;;;11.43;5.10;;;18.90;1.00;;;;;;5136516;27;20184;-82
2023/09/26 07:26:52;;;;;;;14.17;4.73;;;19.00;1.00;;;;;;5136036;27;20219;-81
2023/09/26 07:29:18;;;;;;;12.17;4.80;;;19.00;1.00;;;;;;5136637;27;20165;-82
2023/09/26 07:31:44;;;;;;;7.60;4.10;;;19.00;1.00;;;;;;5136822;27;20537;-80
2023/09/26 07:34:10;;;;;;;11.20;4.47;;;19.10;1.00;;;;;;5136583;27;20170;-80
2023/09/26 07:36:36;;;;;;;7.40;4.03;;;19.10;1.00;;;;;;5134210;27;20169;-81
2023/09/26 07:39:03;;;;;;;10.37;4.20;;;19.20;1.00;;;;;;5134288;27;20173;-81
2023/09/26 07:41:29;;;;;;;9.37;4.30;;;19.40;1.00;;;;;;5151165;27;20178;-81
2023/09/26 07:43:55;;;;;;;6.73;4.10;;;19.30;1.00;;;;;;5154066;27;20222;-81
2023/09/26 07:46:21;;;;;;;9.30;4.03;;;19.30;1.00;;;;;;5137705;27;20276;-83
2023/09/26 07:48:49;;;;;;;9.50;4.10;;;19.30;1.00;;;;;;5135014;27;20177;-81
2023/09/26 07:51:16;;;;;;;6.60;3.70;;;19.40;1.00;;;;;;5136741;27;20147;-80
2023/09/26 07:53:48;;;;;;;5.90;3.37;;;19.50;1.00;;;;;;5135785;27;20229;-82
2023/09/26 07:56:13;;;;;;;7.40;4.07;;;19.50;1.00;;;;;;5136273;27;20174;-84
2023/09/26 07:58:39;;;;;;;4.53;3.10;;;19.50;1.00;;;;;;5136564;27;20174;-80
2023/09/26 08:01:09;;;;;;;6.27;3.47;;;19.50;1.00;;;;;;5133853;27;20256;-83
2023/09/26 08:03:37;;;;;;;7.17;3.50;;;19.30;1.00;;;;;;5141457;27;20285;-80
2023/09/26 08:06:06;;;;;;;6.40;3.37;;;19.40;1.00;;;;;;5155687;27;20173;-80
2023/09/26 08:08:33;;;;;;;6.20;3.23;;;19.50;1.00;;;;;;5143099;27;20192;-82
2023/09/26 08:11:10;;;;;;;7.47;3.13;;;19.50;1.00;;;;;;5135659;27;20582;-81
2023/09/26 08:13:58;;;;;;;8.07;3.40;;;19.50;1.00;;;;;;5135706;27;20180;-82
2023/09/26 08:16:27;;;;;;;7.10;3.30;;;19.40;1.00;;;;;;5136443;27;20166;-81
2023/09/26 08:18:52;;;;;;;8.50;3.07;;;19.50;1.00;;;;;;5136539;27;20224;-82
2023/09/26 08:21:18;;;;;;;5.73;2.90;;;19.70;1.00;;;;;;5135011;27;20631;-82
2023/09/26 08:23:44;;;;;;;4.90;3.17;;;19.80;1.00;;;;;;5134470;27;20239;-81
2023/09/26 08:26:11;;;;;;;8.37;3.27;;;19.80;1.00;;;;;;5136674;27;20169;-82
2023/09/26 08:28:38;;;;;;;5.50;3.00;;;20.00;1.00;;;;;;5137735;27;20206;-81
2023/09/26 08:31:10;;;;;;;6.87;3.10;;;20.00;1.00;;;;;;5133874;27;20198;-82
2023/09/26 08:33:36;;;;;;;7.70;3.37;;;20.00;1.00;;;;;;5133901;27;20550;-82
2023/09/26 08:36:21;;;;;;;6.87;2.93;;;20.00;1.00;;;;;;5134226;27;20173;-81
2023/09/26 08:38:48;;;;;;;7.33;3.10;;;20.00;1.00;;;;;;5134069;27;20183;-80
2023/09/26 08:41:17;;;;;;;6.83;3.10;;;20.00;1.00;;;;;;5133410;27;20260;-81
2023/09/26 08:43:45;;;;;;;11.33;3.67;;;20.10;1.00;;;;;;5135154;27;20223;-81
2023/09/26 08:46:11;;;;;;;7.00;3.30;;;20.10;1.00;;;;;;5136141;27;20187;-83
2023/09/26 08:48:42;;;;;;;5.87;2.87;;;20.10;1.00;;;;;;5134626;27;20173;-82
2023/09/26 08:51:09;;;;;;;7.97;3.27;;;20.20;1.00;;;;;;5133888;27;20169;-85
2023/09/26 08:53:34;;;;;;;7.27;3.37;;;20.40;1.00;;;;;;5133538;28;20204;-81
2023/09/26 08:56:00;;;;;;;8.23;3.00;;;20.60;1.00;;;;;;5133640;27;20177;-82
2023/09/26 08:58:27;;;;;;;8.47;2.60;;;20.80;1.00;;;;;;5134795;27;20167;-82
2023/09/26 09:00:55;;;;;;;7.47;3.03;;;20.70;1.00;;;;;;5144598;27;20263;-82
2023/09/26 09:03:21;;;;;;;8.07;3.03;;;20.90;1.00;;;;;;5149880;27;20205;-83
2023/09/26 09:05:46;;;;;;;6.60;3.23;;;21.00;1.00;;;;;;5143652;27;20177;-81
2023/09/26 09:08:20;;;;;;;5.70;3.30;;;21.30;1.00;;;;;;5137731;27;20172;-83
2023/09/26 09:10:50;;;;;;;7.00;2.50;;;21.40;1.00;;;;;;5136541;27;20180;-81
2023/09/26 09:13:27;;;;;;;4.97;2.60;;;21.30;1.00;;;;;;5136386;27;20657;-81
2023/09/26 09:16:16;;;;;;;5.20;2.90;;;21.40;1.00;;;;;;5133945;27;20260;-80
2023/09/26 09:18:50;;;;;;;6.67;3.10;;;21.40;1.00;;;;;;5135158;27;20173;-81
2023/09/26 09:21:21;;;;;;;8.60;3.00;;;21.40;1.00;;;;;;5138216;27;20181;-81
2023/09/26 09:23:47;;;;;;;9.63;3.20;;;21.30;1.00;;;;;;5133602;28;20687;-82
2023/09/26 09:26:13;;;;;;;7.10;3.40;;;21.30;1.00;;;;;;5134532;27;20170;-82
2023/09/26 09:28:39;;;;;;;6.93;3.47;;;21.30;1.00;;;;;;5133796;28;20181;-80
2023/09/26 09:31:05;;;;;;;6.67;3.10;;;21.40;1.00;;;;;;5136696;27;20618;-82
2023/09/26 09:33:31;;;;;;;5.13;2.50;;;21.50;1.00;;;;;;5147620;27;20160;-80
2023/09/26 09:35:57;;;;;;;5.50;2.80;;;21.50;1.00;;;;;;5152721;27;20157;-82
2023/09/26 09:38:23;;;;;;;5.63;2.50;;;21.40;1.00;;;;;;5136065;27;20583;-81
2023/09/26 09:40:49;;;;;;;5.47;2.90;;;21.50;1.00;;;;;;5146079;28;20267;-80
2023/09/26 09:43:14;;;;;;;7.27;3.23;;;21.50;1.00;;;;;;5133878;28;20224;-82
2023/09/26 09:45:43;;;;;;;7.93;4.03;;;21.60;1.00;;;;;;5154756;27;20154;-82
2023/09/26 09:48:09;;;;;;;6.93;3.27;;;21.70;1.00;;;;;;5142534;27;20644;-81
2023/09/26 09:50:40;;;;;;;5.27;2.53;;;21.80;1.00;;;;;;5140162;27;20165;-82
2023/09/26 09:53:08;;;;;;;7.27;2.90;;;21.90;1.00;;;;;;5139988;27;20189;-80
2023/09/26 09:55:38;;;;;;;10.10;3.50;;;22.10;1.00;;;;;;5157380;27;20162;-80
2023/09/26 09:58:09;;;;;;;6.57;3.30;;;22.10;1.00;;;;;;5153916;27;20162;-80
2023/09/26 10:00:40;;;;;;;7.47;3.23;;;22.10;1.00;;;;;;5150297;27;20164;-82
2023/09/26 10:03:06;;;;;;;7.23;3.23;;;22.00;1.00;;;;;;5155270;27;20213;-78
2023/09/26 10:05:34;;;;;;;8.20;2.80;;;21.80;1.00;;;;;;5154802;27;20598;-81
2023/09/26 10:08:02;;;;;;;9.03;5.63;;;21.80;1.00;;;;;;5153172;27;20275;-81
2023/09/26 10:10:29;;;;;;;8.43;3.30;;;21.80;1.00;;;;;;5148302;27;20211;-82
2023/09/26 10:12:56;;;;;;;4.73;2.80;;;21.80;1.00;;;;;;5140023;27;20166;-82
2023/09/26 10:15:24;;;;;;;7.33;3.30;;;21.70;1.00;;;;;;5142337;27;20261;-84
2023/09/26 10:17:56;;;;;;;7.40;3.00;;;21.80;1.00;;;;;;5138915;27;20166;-82
2023/09/26 10:20:39;;;;;;;5.40;3.13;;;21.80;1.00;;;;;;5138315;27;20175;-83
2023/09/26 10:23:11;;;;;;;9.57;3.60;;;21.90;1.00;;;;;;5139976;27;20239;-82
2023/09/26 10:25:53;;;;;;;8.77;3.67;;;21.90;1.00;;;;;;5140024;27;20645;-82
2023/09/26 10:29:13;;;;;;;7.23;3.57;;;21.90;1.00;;;;;;5139420;27;20166;-80
2023/09/26 10:31:41;;;;;;;8.43;3.43;;;22.00;1.00;;;;;;5139366;27;20166;-84
2023/09/26 10:34:08;;;;;;;6.23;3.60;;;22.30;1.00;;;;;;5139193;27;20166;-85
2023/09/26 10:36:34;;;;;;;8.67;3.53;;;22.40;1.00;;;;;;5138027;27;20207;-83
2023/09/26 10:39:09;;;;;;;7.50;3.87;;;22.30;1.00;;;;;;5138140;27;20172;-82
2023/09/26 10:41:36;;;;;;;7.50;3.70;;;22.40;1.00;;;;;;5137988;27;20173;-82
2023/09/26 10:44:04;;;;;;;7.70;3.73;;;22.50;1.00;;;;;;5136827;27;20289;-82
2023/09/26 10:46:30;;;;;;;9.43;3.40;;;22.60;1.00;;;;;;5139204;27;20167;-84
2023/09/26 10:48:57;;;;;;;7.57;3.33;;;22.80;1.00;;;;;;5138041;27;20580;-80
2023/09/26 10:51:23;;;;;;;5.30;3.20;;;22.80;1.00;;;;;;5139267;27;20158;-80
2023/09/26 10:53:51;;;;;;;7.50;3.83;;;22.90;1.00;;;;;;5138350;27;20188;-82
2023/09/26 10:56:18;;;;;;;8.87;3.40;;;23.00;1.00;;;;;;5136950;27;20508;-81
2023/09/26 10:58:47;;;;;;;6.03;3.60;;;23.00;1.00;;;;;;5142108;27;20613;-83
2023/09/26 11:01:12;;;;;;;7.77;3.87;;;23.10;1.00;;;;;;5154300;27;20186;-82
2023/09/26 11:03:39;;;;;;;6.00;3.23;;;23.30;1.00;;;;;;5145372;27;20566;-81
2023/09/26 11:06:23;;;;;;;6.10;3.00;;;23.30;1.00;;;;;;5138424;27;20181;-82
2023/09/26 11:08:52;;;;;;;5.60;2.80;;;23.30;1.00;;;;;;5137473;27;20162;-82
2023/09/26 11:11:20;;;;;;;6.10;3.07;;;23.30;1.00;;;;;;5138400;27;20241;-83
2023/09/26 11:13:53;;;;;;;6.60;3.13;;;23.40;1.00;;;;;;5139165;27;20170;-81
2023/09/26 11:16:51;;;;;;;6.63;2.60;;;23.40;1.00;;;;;;5139124;27;20163;-81
2023/09/26 11:19:17;;;;;;;5.13;2.77;;;23.30;1.00;;;;;;5138482;27;20160;-84
2023/09/26 11:21:43;;;;;;;6.43;2.67;;;23.40;1.00;;;;;;5142089;27;20245;-86
2023/09/26 11:24:18;;;;;;;6.03;2.90;;;23.50;1.00;;;;;;5153757;27;20205;-84
2023/09/26 11:26:45;;;;;;;5.33;2.57;;;23.70;1.00;;;;;;5153000;27;20181;-82
2023/09/26 11:29:12;;;;;;;4.83;2.07;;;23.90;99.90;;;;;;5139207;27;20595;-82
2023/09/26 11:31:45;;;;;;;5.93;2.30;;;23.80;99.90;;;;;;5143312;27;20166;-81
2023/09/26 11:34:12;;;;;;;7.40;2.50;;;23.80;99.90;;;;;;5140971;27;20170;-81
2023/09/26 11:36:42;;;;;;;5.33;2.17;;;23.70;99.90;;;;;;5138551;27;20151;-83
2023/09/26 11:39:12;;;;;;;4.83;2.07;;;23.80;99.90;;;;;;5136017;27;20165;-81
2023/09/26 11:41:37;;;;;;;4.63;2.30;;;23.90;99.90;;;;;;5135122;27;20190;-84
2023/09/26 11:44:08;;;;;;;3.57;2.10;;;23.90;99.90;;;;;;5136523;27;20330;-82
2023/09/26 11:46:39;;;;;;;6.90;2.43;;;23.70;99.90;;;;;;5135386;27;20262;-82
2023/09/26 11:49:05;;;;;;;4.67;2.87;;;23.70;99.90;;;;;;5135124;27;20174;-82
2023/09/26 11:51:31;;;;;;;5.07;2.20;;;23.80;99.90;;;;;;5135378;27;20193;-81
2023/09/26 11:53:57;;;;;;;3.17;1.93;;;23.80;99.90;;;;;;5135048;27;20194;-83
2023/09/26 11:56:27;;;;;;;4.80;2.07;;;23.80;99.90;;;;;;5134746;27;20170;-81
2023/09/26 11:58:53;;;;;;;4.17;2.40;;;23.90;99.90;;;;;;5135848;27;20170;-81
2023/09/26 12:01:20;;;;;;;4.50;2.10;;;23.90;99.90;;;;;;5135041;27;20185;-82
2023/09/26 12:03:46;;;;;;;4.10;2.50;;;23.90;99.90;;;;;;5136388;27;20202;-81
2023/09/26 12:06:12;;;;;;;4.73;2.23;;;23.90;99.90;;;;;;5135112;27;20189;-82
2023/09/26 12:08:38;;;;;;;3.53;2.10;;;24.00;99.90;;;;;;5134930;27;20177;-82
2023/09/26 12:11:05;;;;;;;3.20;2.03;;;23.90;99.90;;;;;;5135660;27;20167;-84
2023/09/26 12:13:32;;;;;;;7.03;3.67;;;24.00;99.90;;;;;;5135268;27;20194;-82
2023/09/26 12:15:57;;;;;;;3.20;2.10;;;24.10;99.90;;;;;;5134195;27;20173;-82
2023/09/26 12:18:23;;;;;;;4.70;2.57;;;24.20;99.90;;;;;;5134524;27;20166;-81
2023/09/26 12:20:55;;;;;;;4.57;2.20;;;24.00;99.90;;;;;;5134280;27;20681;-83
2023/09/26 12:23:22;;;;;;;5.00;2.30;;;24.00;99.90;;;;;;5136009;27;20214;-82
2023/09/26 12:25:49;;;;;;;3.53;2.40;;;24.10;99.90;;;;;;5134975;27;20178;-84
2023/09/26 12:28:18;;;;;;;3.93;2.37;;;24.20;99.90;;;;;;5131770;27;20266;-80
2023/09/26 12:30:44;;;;;;;4.40;2.23;;;24.20;99.90;;;;;;5134437;27;20267;-81
2023/09/26 12:33:10;;;;;;;4.90;2.67;;;24.10;99.90;;;;;;5135296;27;20178;-81
2023/09/26 12:35:36;;;;;;;4.33;2.00;;;24.30;99.90;;;;;;5135211;27;20170;-83
2023/09/26 12:38:02;;;;;;;4.20;2.30;;;24.50;99.20;;;;;;5134702;27;20170;-81
2023/09/26 12:40:28;;;;;;;5.53;2.03;;;24.50;23.80;;;;;;5134334;27;20189;-81
2023/09/26 12:42:55;;;;;;;4.50;2.07;;;24.50;1.00;;;;;;5135468;27;20254;-81
2023/09/26 12:45:21;;;;;;;3.43;1.80;;;24.60;1.00;;;;;;5134013;27;20253;-81
2023/09/26 12:47:47;;;;;;;4.10;2.53;;;24.50;1.00;;;;;;5142362;27;20203;-81
2023/09/26 12:50:13;;;;;;;4.60;2.33;;;24.40;1.00;;;;;;5139665;27;20173;-83
2023/09/26 12:52:40;;;;;;;7.03;2.43;;;24.40;1.00;;;;;;5135565;27;20673;-83